Time,TemperatureF,DewpointF,PressureIn,WindDirection,WindDirectionDegrees,WindSpeedMPH,WindSpeedGustMPH,Humidity,HourlyPrecipIn,Conditions,Clouds,dailyrainin,SoftwareType,DateUTC
2013-11-14 00:11:00,45.3,32.0,25.73,NW,316,5.0,7.0,61,0.00,,,0.00,weatherlink.com 1.10,2013-11-14 07:11:00,
2013-11-14 00:26:00,44.2,33.0,25.74,North,354,9.0,15.0,64,0.00,,,0.00,weatherlink.com 1.10,2013-11-14 07:26:00,
2013-11-14 00:41:00,43.5,32.0,25.73,NNW,345,8.0,13.0,65,0.00,,,0.00,weatherlink.com 1.10,2013-11-14 07:41:00,
2013-11-14 00:56:00,43.1,32.0,25.74,NNE,27,10.0,15.0,66,0.00,,,0.00,weatherlink.com 1.10,2013-11-14 07:56:00,
2013-11-14 01:11:00,43.1,33.0,25.74,NE,36,11.0,16.0,68,0.00,,,0.00,weatherlink.com 1.10,2013-11-14 08:11:00,
2013-11-14 01:26:00,43.0,34.0,25.75,NNE,23,14.0,17.0,70,0.00,,,0.00,weatherlink.com 1.10,2013-11-14 08:26:00,
2013-11-14 01:41:00,43.8,35.0,25.76,NW,315,14.0,23.0,72,0.00,,,0.00,weatherlink.com 1.10,2013-11-14 08:41:00,
2013-11-14 01:56:00,44.1,36.0,25.77,NE,56,16.0,22.0,73,0.00,,,0.00,weatherlink.com 1.10,2013-11-14 08:56:00,
2013-11-14 02:11:00,43.6,37.0,25.77,NE,56,15.0,23.0,76,0.00,,,0.00,weatherlink.com 1.10,2013-11-14 09:11:00,
2013-11-14 02:27:00,42.8,37.0,25.79,North,9,12.0,25.0,79,0.00,,,0.00,weatherlink.com 1.10,2013-11-14 09:27:00,
2013-11-14 02:42:00,42.5,37.0,25.79,NE,41,7.0,17.0,81,0.00,,,0.00,weatherlink.com 1.10,2013-11-14 09:42:00,
2013-11-14 02:57:00,42.1,38.0,25.80,East,87,7.0,16.0,84,0.00,,,0.00,weatherlink.com 1.10,2013-11-14 09:57:00,
2013-11-14 03:12:00,41.7,38.0,25.80,NNE,25,9.0,12.0,87,0.00,,,0.00,weatherlink.com 1.10,2013-11-14 10:12:00,
2013-11-14 03:27:00,41.3,38.0,25.79,North,351,4.0,10.0,89,0.00,,,0.00,weatherlink.com 1.10,2013-11-14 10:27:00,
2013-11-14 03:42:00,40.9,39.0,25.79,NNW,330,1.0,6.0,91,0.00,,,0.00,weatherlink.com 1.10,2013-11-14 10:42:00,
2013-11-14 03:57:00,40.8,38.0,25.79,NNE,30,3.0,5.0,91,0.00,,,0.00,weatherlink.com 1.10,2013-11-14 10:57:00,
2013-11-14 04:12:00,40.6,39.0,25.79,NNE,15,1.0,5.0,92,0.00,,,0.00,weatherlink.com 1.10,2013-11-14 11:12:00,
2013-11-14 04:27:00,40.3,38.0,25.79,NNE,22,2.0,4.0,92,0.00,,,0.00,weatherlink.com 1.10,2013-11-14 11:27:00,
2013-11-14 04:42:00,38.7,37.0,25.80,NNW,341,4.0,5.0,92,0.00,,,0.00,weatherlink.com 1.10,2013-11-14 11:42:00,
2013-11-14 04:57:00,38.1,37.0,25.81,North,349,3.0,7.0,94,0.00,,,0.00,weatherlink.com 1.10,2013-11-14 11:57:00,
2013-11-14 05:12:00,37.5,36.0,25.81,NNW,343,4.0,6.0,94,0.00,,,0.00,weatherlink.com 1.10,2013-11-14 12:12:00,
2013-11-14 05:27:00,38.5,37.0,25.81,North,349,2.0,8.0,95,0.00,,,0.00,weatherlink.com 1.10,2013-11-14 12:27:00,
2013-11-14 05:42:00,38.8,37.0,25.81,East,81,2.0,5.0,94,0.00,,,0.00,weatherlink.com 1.10,2013-11-14 12:42:00,
2013-11-14 05:57:00,39.2,37.0,25.81,North,349,0.0,5.0,93,0.00,,,0.00,weatherlink.com 1.10,2013-11-14 12:57:00,
2013-11-14 06:12:00,39.0,37.0,25.81,NW,322,2.0,4.0,93,0.00,,,0.00,weatherlink.com 1.10,2013-11-14 13:12:00,
2013-11-14 06:27:00,38.8,37.0,25.80,NNW,330,0.0,3.0,93,0.00,,,0.00,weatherlink.com 1.10,2013-11-14 13:27:00,
2013-11-14 06:42:00,39.0,37.0,25.80,NNE,23,0.0,1.0,93,0.00,,,0.00,weatherlink.com 1.10,2013-11-14 13:42:00,
2013-11-14 06:57:00,38.5,36.0,25.81,WNW,300,5.0,6.0,92,0.00,,,0.00,weatherlink.com 1.10,2013-11-14 13:57:00,
2013-11-14 07:12:00,38.4,36.0,25.81,WNW,297,4.0,8.0,92,0.00,,,0.00,weatherlink.com 1.10,2013-11-14 14:12:00,
2013-11-14 07:27:00,38.6,37.0,25.80,WNW,290,4.0,6.0,93,0.00,,,0.00,weatherlink.com 1.10,2013-11-14 14:27:00,
2013-11-14 07:42:00,39.7,37.0,25.81,NW,311,5.0,9.0,91,0.00,,,0.00,weatherlink.com 1.10,2013-11-14 14:42:00,
2013-11-14 07:57:00,39.2,37.0,25.81,WNW,302,4.0,7.0,91,0.00,,,0.00,weatherlink.com 1.10,2013-11-14 14:57:00,
2013-11-14 08:12:00,40.5,38.0,25.81,WNW,297,4.0,7.0,90,0.00,,,0.00,weatherlink.com 1.10,2013-11-14 15:12:00,
2013-11-14 08:27:00,41.7,38.0,25.81,NW,308,5.0,8.0,86,0.00,,,0.00,weatherlink.com 1.10,2013-11-14 15:27:00,
2013-11-14 08:42:00,42.9,38.0,25.80,NW,304,4.0,7.0,83,0.00,,,0.00,weatherlink.com 1.10,2013-11-14 15:42:00,
2013-11-14 08:57:00,43.6,38.0,25.80,WNW,290,2.0,9.0,80,0.00,,,0.00,weatherlink.com 1.10,2013-11-14 15:57:00,
2013-11-14 09:12:00,44.9,38.0,25.80,NW,321,5.0,9.0,78,0.00,,,0.00,weatherlink.com 1.10,2013-11-14 16:12:00,
2013-11-14 09:27:00,45.4,38.0,25.80,WNW,285,5.0,10.0,74,0.00,,,0.00,weatherlink.com 1.10,2013-11-14 16:27:00,
2013-11-14 09:42:00,45.6,37.0,25.80,WNW,297,4.0,11.0,72,0.00,,,0.00,weatherlink.com 1.10,2013-11-14 16:42:00,
2013-11-14 09:57:00,46.2,37.0,25.79,WNW,294,6.0,11.0,70,0.00,,,0.00,weatherlink.com 1.10,2013-11-14 16:57:00,
2013-11-14 10:12:00,47.0,36.0,25.79,WNW,297,3.0,11.0,67,0.00,,,0.00,weatherlink.com 1.10,2013-11-14 17:12:00,
2013-11-14 10:27:00,47.9,37.0,25.79,WNW,302,7.0,8.0,66,0.00,,,0.00,weatherlink.com 1.10,2013-11-14 17:27:00,
2013-11-14 10:42:00,48.4,37.0,25.78,West,280,3.0,11.0,64,0.00,,,0.00,weatherlink.com 1.10,2013-11-14 17:42:00,
2013-11-14 10:57:00,49.5,35.0,25.77,NNW,327,9.0,10.0,58,0.00,,,0.00,weatherlink.com 1.10,2013-11-14 17:57:00,
2013-11-14 11:13:00,49.5,32.0,25.76,NW,304,3.0,8.0,52,0.00,,,0.00,weatherlink.com 1.10,2013-11-14 18:13:00,
2013-11-14 11:28:00,50.8,34.0,25.75,WSW,255,2.0,9.0,52,0.00,,,0.00,weatherlink.com 1.10,2013-11-14 18:28:00,
2013-11-14 11:43:00,52.4,32.0,25.74,West,267,5.0,9.0,47,0.00,,,0.00,weatherlink.com 1.10,2013-11-14 18:43:00,
2013-11-14 11:58:00,52.4,32.0,25.73,WNW,287,3.0,9.0,46,0.00,,,0.00,weatherlink.com 1.10,2013-11-14 18:58:00,
2013-11-14 12:13:00,52.8,31.0,25.71,WNW,290,6.0,9.0,44,0.00,,,0.00,weatherlink.com 1.10,2013-11-14 19:13:00,
2013-11-14 12:28:00,53.1,31.0,25.71,WNW,294,5.0,10.0,43,0.00,,,0.00,weatherlink.com 1.10,2013-11-14 19:28:00,
2013-11-14 12:43:00,53.3,32.0,25.70,West,267,6.0,14.0,45,0.00,,,0.00,weatherlink.com 1.10,2013-11-14 19:43:00,
2013-11-14 12:58:00,53.5,31.0,25.69,West,280,5.0,10.0,43,0.00,,,0.00,weatherlink.com 1.10,2013-11-14 19:58:00,
2013-11-14 13:13:00,53.4,32.0,25.68,West,271,6.0,11.0,44,0.00,,,0.00,weatherlink.com 1.10,2013-11-14 20:13:00,
2013-11-14 13:28:00,53.9,32.0,25.68,West,280,8.0,11.0,44,0.00,,,0.00,weatherlink.com 1.10,2013-11-14 20:28:00,
2013-11-14 13:43:00,53.9,33.0,25.67,WSW,252,9.0,10.0,45,0.00,,,0.00,weatherlink.com 1.10,2013-11-14 20:43:00,
2013-11-14 13:58:00,54.0,32.0,25.66,WNW,289,2.0,13.0,44,0.00,,,0.00,weatherlink.com 1.10,2013-11-14 20:58:00,
2013-11-14 14:13:00,53.7,33.0,25.66,West,267,4.0,10.0,45,0.00,,,0.00,weatherlink.com 1.10,2013-11-14 21:13:00,
2013-11-14 14:28:00,54.6,32.0,25.65,West,278,4.0,10.0,42,0.00,,,0.00,weatherlink.com 1.10,2013-11-14 21:28:00,
2013-11-14 14:43:00,54.5,33.0,25.65,WSW,250,5.0,7.0,45,0.00,,,0.00,weatherlink.com 1.10,2013-11-14 21:43:00,
2013-11-14 14:58:00,54.7,33.0,25.65,West,272,7.0,9.0,44,0.00,,,0.00,weatherlink.com 1.10,2013-11-14 21:58:00,
2013-11-14 15:13:00,55.1,33.0,25.65,WSW,243,0.0,6.0,43,0.00,,,0.00,weatherlink.com 1.10,2013-11-14 22:13:00,
2013-11-14 15:28:00,54.7,32.0,25.65,WNW,296,4.0,6.0,42,0.00,,,0.00,weatherlink.com 1.10,2013-11-14 22:28:00,
2013-11-14 15:43:00,53.0,32.0,25.65,WNW,302,3.0,4.0,45,0.00,,,0.00,weatherlink.com 1.10,2013-11-14 22:43:00,
2013-11-14 15:58:00,51.0,32.0,25.65,WNW,283,1.0,5.0,48,0.00,,,0.00,weatherlink.com 1.10,2013-11-14 22:58:00,
2013-11-14 16:13:00,49.4,31.0,25.65,West,280,0.0,2.0,50,0.00,,,0.00,weatherlink.com 1.10,2013-11-14 23:13:00,
2013-11-14 16:28:00,48.1,31.0,25.65,West,259,0.0,1.0,53,0.00,,,0.00,weatherlink.com 1.10,2013-11-14 23:28:00,
2013-11-14 16:43:00,47.5,32.0,25.65,West,259,0.0,0.0,55,0.00,,,0.00,weatherlink.com 1.10,2013-11-14 23:43:00,
2013-11-14 16:58:00,45.9,31.0,25.64,West,259,0.0,0.0,56,0.00,,,0.00,weatherlink.com 1.10,2013-11-14 23:58:00,
2013-11-14 17:13:00,45.0,31.0,25.64,West,259,0.0,0.0,58,0.00,,,0.00,weatherlink.com 1.10,2013-11-15 00:13:00,
2013-11-14 17:28:00,44.4,31.0,25.64,West,259,0.0,0.0,59,0.00,,,0.00,weatherlink.com 1.10,2013-11-15 00:28:00,
2013-11-14 17:43:00,44.5,31.0,25.64,West,259,0.0,0.0,59,0.00,,,0.00,weatherlink.com 1.10,2013-11-15 00:43:00,
2013-11-14 17:58:00,44.3,31.0,25.64,SSE,168,3.0,3.0,60,0.00,,,0.00,weatherlink.com 1.10,2013-11-15 00:58:00,
2013-11-14 18:13:00,42.9,31.0,25.64,SSW,212,1.0,3.0,62,0.00,,,0.00,weatherlink.com 1.10,2013-11-15 01:13:00,
2013-11-14 18:28:00,43.4,31.0,25.65,SSW,210,5.0,6.0,62,0.00,,,0.00,weatherlink.com 1.10,2013-11-15 01:28:00,
2013-11-14 18:43:00,43.9,31.0,25.65,SSE,150,3.0,6.0,62,0.00,,,0.00,weatherlink.com 1.10,2013-11-15 01:43:00,
2013-11-14 18:58:00,43.3,32.0,25.65,SW,215,3.0,7.0,64,0.00,,,0.00,weatherlink.com 1.10,2013-11-15 01:58:00,
2013-11-14 19:13:00,42.6,31.0,25.64,SSW,197,3.0,6.0,65,0.00,,,0.00,weatherlink.com 1.10,2013-11-15 02:13:00,
2013-11-14 19:28:00,42.2,32.0,25.64,SW,215,5.0,6.0,67,0.00,,,0.00,weatherlink.com 1.10,2013-11-15 02:28:00,
2013-11-14 19:43:00,41.7,32.0,25.64,SW,215,4.0,4.0,68,0.00,,,0.00,weatherlink.com 1.10,2013-11-15 02:43:00,
2013-11-14 19:59:00,41.9,32.0,25.64,SW,217,5.0,7.0,68,0.00,,,0.00,weatherlink.com 1.10,2013-11-15 02:59:00,
2013-11-14 20:14:00,40.6,32.0,25.63,SSE,166,3.0,5.0,70,0.00,,,0.00,weatherlink.com 1.10,2013-11-15 03:14:00,
2013-11-14 20:29:00,39.5,31.0,25.63,South,180,3.0,5.0,72,0.00,,,0.00,weatherlink.com 1.10,2013-11-15 03:29:00,
2013-11-14 20:44:00,38.3,31.0,25.63,SE,145,2.0,3.0,75,0.00,,,0.00,weatherlink.com 1.10,2013-11-15 03:44:00,
2013-11-14 20:59:00,38.6,31.0,25.62,SSE,160,4.0,5.0,75,0.00,,,0.00,weatherlink.com 1.10,2013-11-15 03:59:00,
2013-11-14 21:14:00,38.5,31.0,25.62,SSW,210,2.0,4.0,75,0.00,,,0.00,weatherlink.com 1.10,2013-11-15 04:14:00,
2013-11-14 21:29:00,38.3,32.0,25.62,SW,216,4.0,7.0,77,0.00,,,0.00,weatherlink.com 1.10,2013-11-15 04:29:00,
2013-11-14 21:45:00,40.2,33.0,25.61,SSW,201,8.0,12.0,75,0.00,,,0.00,weatherlink.com 1.10,2013-11-15 04:45:00,
2013-11-14 21:59:00,39.1,32.0,25.61,SW,214,7.0,10.0,77,0.00,,,0.00,weatherlink.com 1.10,2013-11-15 04:59:00,
2013-11-14 22:14:00,38.3,32.0,25.60,SSW,212,6.0,11.0,79,0.00,,,0.00,weatherlink.com 1.10,2013-11-15 05:14:00,
2013-11-14 22:29:00,38.1,33.0,25.59,SSW,194,10.0,11.0,81,0.00,,,0.00,weatherlink.com 1.10,2013-11-15 05:29:00,
2013-11-14 22:44:00,37.9,33.0,25.59,WNW,282,6.0,12.0,82,0.00,,,0.00,weatherlink.com 1.10,2013-11-15 05:44:00,
2013-11-14 22:59:00,37.8,33.0,25.59,SSE,167,9.0,12.0,82,0.00,,,0.00,weatherlink.com 1.10,2013-11-15 05:59:00,
2013-11-14 23:14:00,37.0,32.0,25.59,SW,221,7.0,11.0,83,0.00,,,0.00,weatherlink.com 1.10,2013-11-15 06:14:00,
2013-11-14 23:29:00,36.4,32.0,25.58,WSW,240,5.0,11.0,84,0.00,,,0.00,weatherlink.com 1.10,2013-11-15 06:29:00,
2013-11-14 23:44:00,35.6,32.0,25.57,SW,226,7.0,10.0,85,0.00,,,0.00,weatherlink.com 1.10,2013-11-15 06:44:00,
2013-11-14 23:59:00,34.7,31.0,25.57,SSE,156,5.0,8.0,86,0.00,,,0.00,weatherlink.com 1.10,2013-11-15 06:59:00,